createdAt,value
2023-04-23T00:02:13.315Z,88.84
2023-04-23T00:04:52.935Z,88.70
2023-04-23T00:07:22.855Z,88.69
2023-04-23T00:09:56.748Z,88.17
2023-04-23T00:12:26.387Z,88.87
2023-04-23T00:14:55.851Z,88.53
2023-04-23T00:17:24.721Z,89.21
2023-04-23T00:19:53.240Z,89.23
2023-04-23T00:22:22.128Z,88.64
2023-04-23T00:24:52.065Z,88.75
2023-04-23T00:27:31.623Z,88.86
2023-04-23T00:30:00.049Z,88.82
2023-04-23T00:32:28.563Z,89.42
2023-04-23T00:34:57.223Z,89.50
2023-04-23T00:37:26.148Z,89.59
2023-04-23T00:39:56.505Z,89.26
2023-04-23T00:42:24.949Z,89.26
2023-04-23T00:44:54.101Z,89.79
2023-04-23T00:47:23.575Z,90.13
2023-04-23T00:49:55.694Z,89.34
2023-04-23T00:52:24.137Z,89.27
2023-04-23T00:54:52.866Z,89.28
2023-04-23T00:57:23.518Z,89.39
2023-04-23T00:59:52.118Z,89.94
2023-04-23T01:02:20.933Z,90.05
2023-04-23T01:04:51.730Z,90.35
2023-04-23T01:07:20.479Z,89.92
2023-04-23T01:09:50.566Z,89.95
2023-04-23T01:12:19.601Z,90.45
2023-04-23T01:14:49.671Z,90.74
2023-04-23T01:17:18.071Z,90.46
2023-04-23T01:19:46.634Z,90.25
2023-04-23T01:22:17.575Z,89.90
2023-04-23T01:24:46.272Z,90.28
2023-04-23T01:27:14.837Z,89.83
2023-04-23T01:29:43.817Z,90.66
2023-04-23T01:32:12.595Z,90.79
2023-04-23T01:34:42.846Z,89.84
2023-04-23T01:37:12.516Z,90.55
2023-04-23T01:39:42.434Z,90.19
2023-04-23T01:42:11.180Z,90.71
2023-04-23T01:44:39.961Z,90.06
2023-04-23T01:47:08.777Z,90.41
2023-04-23T01:49:37.375Z,90.47
2023-04-23T01:52:05.988Z,90.87
2023-04-23T01:54:34.389Z,89.96
2023-04-23T01:57:04.394Z,91.18
2023-04-23T01:59:32.898Z,90.06
2023-04-23T02:02:01.520Z,90.23
2023-04-23T02:04:32.040Z,90.68
2023-04-23T02:07:01.361Z,91.28
2023-04-23T02:09:29.728Z,90.56
2023-04-23T02:11:58.334Z,90.29
2023-04-23T02:14:28.213Z,90.81
2023-04-23T02:16:57.813Z,91.25
2023-04-23T02:19:26.469Z,90.99
2023-04-23T02:21:54.940Z,90.86
2023-04-23T02:24:23.921Z,90.37
2023-04-23T02:26:52.490Z,90.80
2023-04-23T02:29:23.800Z,91.16
2023-04-23T02:31:53.796Z,90.76
2023-04-23T02:34:22.690Z,90.98
2023-04-23T02:36:51.118Z,90.12
2023-04-23T02:39:19.804Z,91.58
2023-04-23T02:41:48.382Z,90.70
2023-04-23T02:44:16.938Z,90.79
2023-04-23T02:46:46.277Z,90.14
2023-04-23T02:49:16.194Z,91.03
2023-04-23T02:51:44.690Z,91.60
2023-04-23T02:54:13.953Z,90.86
2023-04-23T02:56:42.402Z,91.07
2023-04-23T02:59:11.255Z,91.57
2023-04-23T03:01:39.699Z,90.66
2023-04-23T03:04:08.204Z,91.26
2023-04-23T03:06:38.126Z,91.27
2023-04-23T03:09:06.924Z,91.60
2023-04-23T03:11:35.592Z,91.02
2023-04-23T03:14:04.013Z,91.53
2023-04-23T03:16:33.158Z,90.97
2023-04-23T03:19:02.225Z,91.23
2023-04-23T03:21:30.686Z,90.69
2023-04-23T03:24:00.394Z,91.18
2023-04-23T03:26:28.756Z,91.13
2023-04-23T03:28:57.326Z,91.78
2023-04-23T03:31:26.043Z,90.77
2023-04-23T03:33:54.771Z,91.99
2023-04-23T03:36:23.526Z,90.97
2023-04-23T03:38:52.755Z,91.65
2023-04-23T03:41:23.169Z,91.43
2023-04-23T03:43:52.126Z,91.22
2023-04-23T03:46:21.455Z,91.79
2023-04-23T03:48:49.921Z,92.42
2023-04-23T03:51:18.412Z,92.19
2023-04-23T03:53:46.994Z,91.48
2023-04-23T03:56:15.639Z,92.40
2023-04-23T03:58:45.476Z,92.72
2023-04-23T04:01:13.952Z,92.88
2023-04-23T04:03:42.619Z,91.93
2023-04-23T04:06:11.899Z,93.12
2023-04-23T04:08:40.350Z,92.81
2023-04-23T04:11:08.733Z,92.58
2023-04-23T04:13:37.259Z,92.95
2023-04-23T04:16:07.994Z,92.03
2023-04-23T04:18:36.775Z,92.04
2023-04-23T04:21:05.888Z,93.21
2023-04-23T04:23:35.100Z,92.68
2023-04-23T04:26:03.671Z,93.05
2023-04-23T04:28:36.308Z,92.50
2023-04-23T04:31:06.875Z,92.78
2023-04-23T04:33:36.073Z,92.50
2023-04-23T04:36:05.088Z,93.43
2023-04-23T04:38:33.557Z,92.74
2023-04-23T04:41:02.732Z,92.62
2023-04-23T04:43:31.197Z,93.25
2023-04-23T04:46:00.353Z,93.03
2023-04-23T04:48:30.136Z,93.27
2023-04-23T04:50:59.073Z,93.59
2023-04-23T04:53:27.845Z,93.17
2023-04-23T04:55:58.315Z,93.33
2023-04-23T04:58:27.298Z,93.26
2023-04-23T05:00:56.353Z,93.57
2023-04-23T05:03:25.006Z,92.95
2023-04-23T05:05:56.553Z,92.84
2023-04-23T05:08:24.963Z,93.80
2023-04-23T05:10:56.484Z,92.55
2023-04-23T05:13:25.888Z,92.72
2023-04-23T05:15:54.538Z,92.90
2023-04-23T05:18:23.281Z,93.28
2023-04-23T05:20:52.235Z,92.74
2023-04-23T05:23:22.636Z,93.07
2023-04-23T05:25:54.166Z,92.55
2023-04-23T05:28:25.180Z,93.06
2023-04-23T05:30:53.910Z,92.22
2023-04-23T05:33:33.395Z,92.88
2023-04-23T05:36:05.353Z,92.49
2023-04-23T05:38:35.556Z,93.01
2023-04-23T05:41:04.112Z,91.96
2023-04-23T05:43:32.626Z,92.75
2023-04-23T05:46:01.023Z,93.06
2023-04-23T05:48:31.124Z,92.71
2023-04-23T05:51:00.044Z,92.89
2023-04-23T05:53:29.693Z,92.25
2023-04-23T05:55:59.682Z,91.86
2023-04-23T05:58:28.111Z,92.13
2023-04-23T06:00:57.711Z,92.10
2023-04-23T06:03:26.925Z,92.20
2023-04-23T06:05:56.293Z,91.60
2023-04-23T06:08:27.499Z,91.22
2023-04-23T06:10:56.271Z,91.92
2023-04-23T06:13:28.156Z,91.29
2023-04-23T06:15:57.118Z,91.36
2023-04-23T06:18:27.604Z,91.16
2023-04-23T06:20:57.032Z,91.10
2023-04-23T06:23:25.946Z,91.03
2023-04-23T06:25:54.377Z,91.13
2023-04-23T06:28:22.910Z,91.32
2023-04-23T06:30:53.264Z,91.59
2023-04-23T06:33:22.106Z,91.77
2023-04-23T06:35:51.135Z,91.03
2023-04-23T06:38:21.282Z,91.11
2023-04-23T06:40:49.844Z,91.09
2023-04-23T06:43:18.455Z,90.96
2023-04-23T06:45:47.313Z,90.64
2023-04-23T06:48:18.651Z,90.83
2023-04-23T06:50:47.530Z,90.67
2023-04-23T06:53:16.032Z,90.81
2023-04-23T06:55:44.448Z,91.05
2023-04-23T06:58:14.196Z,91.00
2023-04-23T07:00:43.892Z,90.94
2023-04-23T07:03:12.934Z,90.08
2023-04-23T07:05:42.894Z,90.55
2023-04-23T07:08:11.282Z,89.88
2023-04-23T07:10:39.643Z,90.04
2023-04-23T07:13:08.001Z,89.50
2023-04-23T07:15:38.008Z,89.37
2023-04-23T07:18:07.361Z,89.49
2023-04-23T07:20:35.871Z,89.10
2023-04-23T07:23:06.346Z,88.94
2023-04-23T07:25:34.769Z,88.61
2023-04-23T07:28:04.240Z,88.08
2023-04-23T07:30:32.699Z,88.34
2023-04-23T07:33:01.190Z,87.96
2023-04-23T07:35:29.600Z,87.49
2023-04-23T07:37:58.055Z,87.33
2023-04-23T07:40:28.136Z,86.63
2023-04-23T07:42:58.936Z,86.47
2023-04-23T07:45:27.559Z,86.82
2023-04-23T07:47:56.565Z,86.14
2023-04-23T07:50:25.061Z,85.71
2023-04-23T07:52:53.849Z,85.20
2023-04-23T07:55:22.560Z,84.54
2023-04-23T07:57:52.427Z,84.58
2023-04-23T08:00:21.247Z,84.39
2023-04-23T08:02:50.021Z,83.74
2023-04-23T08:05:18.494Z,83.06
2023-04-23T08:07:46.847Z,82.36
2023-04-23T08:10:15.216Z,82.05
2023-04-23T08:12:43.573Z,81.22
2023-04-23T08:15:14.019Z,80.69
2023-04-23T08:17:42.652Z,81.05
2023-04-23T08:20:12.195Z,80.17
2023-04-23T08:22:40.611Z,80.06
2023-04-23T08:25:10.808Z,79.74
2023-04-23T08:27:39.158Z,80.28
2023-04-23T08:30:13.944Z,78.55
2023-04-23T08:32:44.229Z,78.24
2023-04-23T08:35:13.569Z,78.10
2023-04-23T08:37:42.106Z,77.82
2023-04-23T08:40:11.499Z,77.00
2023-04-23T08:42:45.079Z,76.84
2023-04-23T08:45:15.040Z,76.88
2023-04-23T08:47:45.454Z,76.59
2023-04-23T08:50:16.561Z,76.13
2023-04-23T08:52:52.066Z,76.25
2023-04-23T08:55:21.277Z,75.63
2023-04-23T08:57:50.985Z,75.19
2023-04-23T09:00:23.221Z,74.55
2023-04-23T09:02:54.399Z,74.39
2023-04-23T09:05:23.447Z,73.60
2023-04-23T09:07:53.006Z,73.55
2023-04-23T09:10:22.138Z,72.68
2023-04-23T09:12:50.864Z,72.79
2023-04-23T09:15:19.665Z,72.24
2023-04-23T09:17:49.870Z,72.16
2023-04-23T09:20:20.054Z,71.66
2023-04-23T09:22:49.936Z,70.96
2023-04-23T09:25:20.360Z,69.96
2023-04-23T09:27:50.172Z,69.39
2023-04-23T09:30:20.139Z,68.65
2023-04-23T09:32:49.841Z,67.77
2023-04-23T09:35:22.670Z,67.05
2023-04-23T09:37:53.374Z,66.73
2023-04-23T09:40:25.324Z,66.24
2023-04-23T09:42:55.184Z,65.98
2023-04-23T09:45:25.172Z,65.66
2023-04-23T09:47:55.998Z,64.62
2023-04-23T09:50:37.000Z,64.32
2023-04-23T09:53:06.496Z,63.91
2023-04-23T09:55:38.716Z,62.59
2023-04-23T09:58:11.551Z,61.82
2023-04-23T10:00:41.555Z,61.24
2023-04-23T10:03:12.150Z,61.19
2023-04-23T10:06:00.217Z,60.65
2023-04-23T10:08:30.431Z,59.88
2023-04-23T10:11:13.519Z,59.22
2023-04-23T10:13:47.611Z,59.25
2023-04-23T10:16:23.098Z,58.68
2023-04-23T10:18:57.002Z,58.75
2023-04-23T10:21:46.657Z,58.07
2023-04-23T10:24:22.135Z,57.09
2023-04-23T10:26:52.896Z,56.62
2023-04-23T10:29:29.100Z,56.34
2023-04-23T10:31:59.897Z,55.86
2023-04-23T10:34:30.281Z,55.00
2023-04-23T10:37:02.460Z,54.93
2023-04-23T10:39:34.590Z,54.81
2023-04-23T10:42:04.297Z,54.11
2023-04-23T10:47:15.700Z,54.19
2023-04-23T10:49:45.384Z,54.06
2023-04-23T10:52:20.322Z,54.91
2023-04-23T10:54:58.020Z,55.41
2023-04-23T10:57:26.492Z,55.88
2023-04-23T10:59:59.025Z,55.05
2023-04-23T11:02:28.218Z,54.69
2023-04-23T11:04:58.861Z,53.97
2023-04-23T11:07:33.952Z,53.63
2023-04-23T11:10:12.888Z,52.26
2023-04-23T11:12:42.360Z,51.76
2023-04-23T11:15:15.390Z,51.74
2023-04-23T11:18:03.397Z,51.35
2023-04-23T11:20:31.980Z,50.72
2023-04-23T11:23:01.900Z,51.20
2023-04-23T11:25:30.627Z,51.19
2023-04-23T11:28:00.200Z,51.25
2023-04-23T11:30:30.967Z,50.82
2023-04-23T11:33:01.553Z,50.44
2023-04-23T11:35:37.948Z,49.36
2023-04-23T11:38:11.322Z,48.22
2023-04-23T11:40:40.727Z,47.35
2023-04-23T11:43:09.813Z,46.71
2023-04-23T11:45:38.357Z,46.28
2023-04-23T11:48:08.014Z,47.16
2023-04-23T11:50:38.521Z,46.51
2023-04-23T11:53:07.675Z,44.50
2023-04-23T11:55:38.229Z,43.64
2023-04-23T11:58:06.703Z,43.09
2023-04-23T12:00:35.287Z,42.86
2023-04-23T12:03:06.071Z,42.06
2023-04-23T12:05:37.022Z,40.99
2023-04-23T12:08:10.203Z,42.01
2023-04-23T12:10:49.541Z,41.70
2023-04-23T12:13:20.431Z,40.29
2023-04-23T12:15:51.156Z,39.85
2023-04-23T12:18:20.035Z,38.92
2023-04-23T12:20:48.605Z,38.18
2023-04-23T12:23:17.030Z,37.36
2023-04-23T12:25:46.906Z,37.47
2023-04-23T12:28:15.545Z,38.23
2023-04-23T12:30:47.248Z,38.29
2023-04-23T12:33:15.775Z,38.09
2023-04-23T12:35:46.470Z,38.40
2023-04-23T12:38:25.877Z,38.02
2023-04-23T12:41:01.905Z,38.04
2023-04-23T12:43:30.358Z,38.02
2023-04-23T12:45:58.742Z,36.33
2023-04-23T12:48:27.553Z,36.17
2023-04-23T12:50:56.375Z,36.19
2023-04-23T12:53:24.825Z,36.17
2023-04-23T12:55:55.309Z,36.17
2023-04-23T12:58:23.693Z,36.90
2023-04-23T13:00:52.558Z,36.71
2023-04-23T13:03:21.433Z,37.44
2023-04-23T13:05:50.282Z,37.04
2023-04-23T13:08:18.668Z,37.26
2023-04-23T13:10:47.021Z,37.52
2023-04-23T13:13:16.770Z,36.85
2023-04-23T13:15:45.243Z,36.20
2023-04-23T13:18:13.576Z,36.04
2023-04-23T13:20:41.959Z,36.42
2023-04-23T13:23:11.575Z,36.92
2023-04-23T13:25:40.088Z,37.32
2023-04-23T13:28:08.909Z,37.69
2023-04-23T13:30:39.757Z,37.57
2023-04-23T13:33:08.213Z,37.13
2023-04-23T13:35:38.077Z,37.34
2023-04-23T13:38:06.466Z,37.73
2023-04-23T13:40:35.521Z,36.66
2023-04-23T13:43:03.878Z,36.57
2023-04-23T13:45:32.423Z,36.58
2023-04-23T13:48:09.052Z,36.30
2023-04-23T13:50:38.104Z,36.31
2023-04-23T13:53:06.597Z,35.95
2023-04-23T13:55:34.938Z,34.57
2023-04-23T13:58:03.837Z,34.51
2023-04-23T14:00:32.533Z,34.18
2023-04-23T14:03:02.365Z,32.42
2023-04-23T14:05:31.860Z,32.42
2023-04-23T14:08:00.222Z,32.42
2023-04-23T14:10:29.501Z,32.17
2023-04-23T14:12:58.472Z,32.81
2023-04-23T14:15:27.613Z,33.95
2023-04-23T14:17:56.381Z,34.21
2023-04-23T14:20:26.374Z,34.49
2023-04-23T14:23:03.590Z,34.74
2023-04-23T14:25:38.204Z,34.76
2023-04-23T14:28:29.862Z,35.31
2023-04-23T14:30:59.433Z,36.48
2023-04-23T14:33:28.100Z,36.59
2023-04-23T14:35:58.359Z,36.69
2023-04-23T14:38:27.732Z,35.96
2023-04-23T14:40:58.533Z,35.00
2023-04-23T14:43:27.253Z,34.07
2023-04-23T14:45:55.910Z,33.90
2023-04-23T14:48:24.868Z,33.70
2023-04-23T14:50:53.434Z,33.43
2023-04-23T14:53:27.659Z,33.58
2023-04-23T14:55:56.673Z,33.62
2023-04-23T14:58:25.435Z,32.93
2023-04-23T15:00:54.379Z,32.12
2023-04-23T15:03:23.737Z,31.48
2023-04-23T15:05:52.764Z,31.36
2023-04-23T15:08:24.053Z,30.78
2023-04-23T15:10:52.643Z,30.84
2023-04-23T15:13:39.821Z,32.03
2023-04-23T15:16:28.425Z,31.85
2023-04-23T15:19:10.172Z,31.83
2023-04-23T15:21:39.067Z,32.07
2023-04-23T15:24:08.975Z,32.03
2023-04-23T15:26:37.820Z,32.13
2023-04-23T15:29:09.069Z,31.74
2023-04-23T15:31:37.934Z,32.55
2023-04-23T15:34:12.430Z,33.23
2023-04-23T15:36:41.298Z,33.00
2023-04-23T15:39:11.130Z,33.78
2023-04-23T15:41:41.523Z,33.42
2023-04-23T15:44:12.492Z,34.56
2023-04-23T15:46:41.523Z,34.50
2023-04-23T15:49:09.965Z,34.76
2023-04-23T15:51:38.930Z,35.02
2023-04-23T15:54:09.045Z,34.86
2023-04-23T15:56:42.140Z,34.97
2023-04-23T15:59:11.023Z,35.77
2023-04-23T16:01:39.789Z,35.99
2023-04-23T16:04:10.401Z,36.06
2023-04-23T16:06:40.137Z,36.75
2023-04-23T16:09:08.953Z,36.60
2023-04-23T16:11:39.953Z,36.67
2023-04-23T16:14:10.149Z,36.62
2023-04-23T16:16:39.412Z,37.00
2023-04-23T16:19:07.882Z,37.29
2023-04-23T16:21:36.310Z,37.51
2023-04-23T16:24:07.902Z,37.87
2023-04-23T16:26:37.432Z,38.00
2023-04-23T16:29:21.607Z,38.58
2023-04-23T16:31:51.449Z,39.19
2023-04-23T16:34:20.077Z,39.23
2023-04-23T16:36:50.088Z,39.57
2023-04-23T16:39:20.817Z,40.21
2023-04-23T16:41:49.282Z,40.60
2023-04-23T16:44:19.251Z,40.85
2023-04-23T16:46:47.778Z,41.42
2023-04-23T16:49:16.294Z,41.68
2023-04-23T16:51:45.328Z,42.19
2023-04-23T16:54:13.706Z,42.44
2023-04-23T16:56:42.415Z,42.43
2023-04-23T16:59:10.722Z,42.86
2023-04-23T17:01:40.462Z,43.32
2023-04-23T17:04:09.601Z,43.52
2023-04-23T17:06:38.166Z,44.60
2023-04-23T17:09:08.969Z,45.63
2023-04-23T17:11:37.353Z,47.16
2023-04-23T17:14:05.821Z,49.45
2023-04-23T17:16:34.428Z,51.44
2023-04-23T17:19:04.398Z,52.64
2023-04-23T17:21:33.034Z,53.10
2023-04-23T17:24:02.753Z,53.96
2023-04-23T17:26:31.256Z,54.94
2023-04-23T17:29:00.313Z,55.74
2023-04-23T17:31:28.814Z,56.34
2023-04-23T17:33:58.829Z,56.96
2023-04-23T17:36:28.649Z,57.33
2023-04-23T17:38:59.869Z,57.66
2023-04-23T17:41:28.460Z,58.42
2023-04-23T17:43:57.955Z,59.06
2023-04-23T17:46:27.161Z,59.61
2023-04-23T17:48:56.499Z,60.48
2023-04-23T17:51:25.301Z,61.49
2023-04-23T17:53:59.745Z,62.58
2023-04-23T17:56:29.040Z,63.42
2023-04-23T17:58:58.417Z,64.10
2023-04-23T18:01:27.892Z,65.40
2023-04-23T18:03:57.051Z,67.44
2023-04-23T18:06:26.713Z,68.10
2023-04-23T18:08:57.980Z,69.44
2023-04-23T18:11:27.620Z,69.86
2023-04-23T18:13:56.918Z,69.98
2023-04-23T18:16:26.478Z,70.75
2023-04-23T18:18:56.454Z,71.28
2023-04-23T18:21:26.416Z,72.15
2023-04-23T18:23:58.453Z,72.33
2023-04-23T18:26:29.255Z,73.28
2023-04-23T18:28:58.524Z,73.69
2023-04-23T18:31:29.031Z,74.03
2023-04-23T18:34:03.760Z,74.95
2023-04-23T18:36:36.575Z,76.23
2023-04-23T18:39:07.455Z,76.79
2023-04-23T18:41:36.091Z,76.88
2023-04-23T18:44:08.337Z,77.76
2023-04-23T18:46:37.182Z,78.32
2023-04-23T18:49:08.081Z,78.46
2023-04-23T18:51:45.063Z,78.68
2023-04-23T18:54:15.997Z,79.61
2023-04-23T18:56:45.036Z,80.00
2023-04-23T18:59:14.081Z,80.40
2023-04-23T19:01:44.685Z,80.72
2023-04-23T19:04:15.343Z,81.13
2023-04-23T19:06:44.445Z,81.61
2023-04-23T19:09:14.430Z,81.82
2023-04-23T19:11:47.909Z,82.53
2023-04-23T19:14:19.730Z,82.63
2023-04-23T19:16:50.694Z,82.78
2023-04-23T19:19:21.251Z,82.97
2023-04-23T19:21:50.070Z,83.70
2023-04-23T19:24:22.647Z,83.73
2023-04-23T19:26:51.524Z,84.23
2023-04-23T19:29:25.007Z,84.16
2023-04-23T19:31:54.527Z,84.88
2023-04-23T19:34:23.088Z,84.44
2023-04-23T19:36:51.860Z,84.84
2023-04-23T19:39:23.710Z,85.57
2023-04-23T19:41:52.725Z,85.90
2023-04-23T19:44:21.926Z,85.68
2023-04-23T19:46:50.568Z,85.83
2023-04-23T19:49:19.599Z,86.50
2023-04-23T19:51:48.514Z,86.44
2023-04-23T19:54:16.878Z,86.09
2023-04-23T19:56:46.846Z,86.90
2023-04-23T19:59:17.007Z,86.77
2023-04-23T20:01:45.420Z,86.52
2023-04-23T20:04:13.933Z,87.24
2023-04-23T20:06:43.306Z,87.21
2023-04-23T20:09:18.249Z,87.68
2023-04-23T20:11:48.802Z,87.13
2023-04-23T20:14:17.158Z,87.47
2023-04-23T20:16:46.594Z,87.64
2023-04-23T20:19:15.880Z,87.80
2023-04-23T20:21:45.738Z,87.84
2023-04-23T20:24:15.552Z,87.75
2023-04-23T20:26:44.236Z,88.03
2023-04-23T20:29:14.401Z,88.34
2023-04-23T20:31:42.908Z,88.17
2023-04-23T20:34:11.656Z,88.13
2023-04-23T20:36:40.049Z,88.28
2023-04-23T20:39:08.425Z,88.42
2023-04-23T20:41:36.935Z,88.98
2023-04-23T20:44:09.155Z,88.88
2023-04-23T20:46:39.536Z,89.28
2023-04-23T20:49:08.819Z,88.56
2023-04-23T20:51:37.272Z,89.03
2023-04-23T20:54:06.232Z,89.24
2023-04-23T20:56:34.690Z,89.43
2023-04-23T20:59:03.118Z,89.21
2023-04-23T21:01:31.632Z,89.68
2023-04-23T21:04:02.691Z,89.63
2023-04-23T21:06:33.451Z,89.67
2023-04-23T21:09:01.945Z,89.48
2023-04-23T21:11:31.293Z,89.89
2023-04-23T21:14:01.143Z,89.89
2023-04-23T21:16:31.364Z,90.03
2023-04-23T21:19:01.462Z,90.10
2023-04-23T21:21:31.734Z,90.34
2023-04-23T21:24:01.035Z,90.24
2023-04-23T21:26:31.548Z,90.37
2023-04-23T21:29:00.320Z,90.40
2023-04-23T21:31:44.924Z,90.75
2023-04-23T21:34:15.533Z,90.84
2023-04-23T21:36:44.797Z,90.76
2023-04-23T21:39:14.001Z,90.27
2023-04-23T21:41:44.791Z,90.86
2023-04-23T21:44:13.232Z,90.86
2023-04-23T21:46:44.907Z,90.54
2023-04-23T21:49:15.073Z,91.20
2023-04-23T21:51:44.614Z,90.64
2023-04-23T21:54:12.928Z,91.21
2023-04-23T21:56:41.931Z,90.83
2023-04-23T21:59:11.743Z,90.91
2023-04-23T22:01:41.224Z,90.83
2023-04-23T22:04:10.268Z,91.44
2023-04-23T22:06:40.320Z,91.31
2023-04-23T22:09:10.281Z,91.33
2023-04-23T22:11:39.048Z,91.52
2023-04-23T22:14:09.111Z,91.49
2023-04-23T22:16:37.604Z,91.36
2023-04-23T22:19:06.105Z,91.46
2023-04-23T22:21:54.736Z,91.48
2023-04-23T22:24:25.402Z,91.43
2023-04-23T22:26:54.177Z,91.71
2023-04-23T22:29:26.721Z,91.48
2023-04-23T22:31:55.533Z,91.29
2023-04-23T22:34:25.693Z,91.43
2023-04-23T22:36:55.781Z,91.54
2023-04-23T22:39:24.718Z,91.74
2023-04-23T22:41:55.548Z,91.62
2023-04-23T22:44:23.997Z,91.60
2023-04-23T22:46:53.124Z,91.69
2023-04-23T22:49:22.012Z,91.23
2023-04-23T22:51:50.821Z,91.63
2023-04-23T22:54:20.908Z,91.51
2023-04-23T22:56:49.711Z,92.22
2023-04-23T22:59:20.865Z,92.29
2023-04-23T23:01:50.684Z,91.75
2023-04-23T23:04:19.334Z,92.00
2023-04-23T23:06:47.698Z,91.79
2023-04-23T23:09:16.080Z,92.14
2023-04-23T23:11:46.268Z,92.27
2023-04-23T23:14:14.697Z,92.25
2023-04-23T23:16:43.164Z,92.50
2023-04-23T23:19:12.470Z,91.91
2023-04-23T23:21:42.490Z,92.19
2023-04-23T23:24:10.867Z,92.27
2023-04-23T23:26:39.592Z,92.33
2023-04-23T23:29:09.426Z,92.37
2023-04-23T23:31:38.024Z,92.01
2023-04-23T23:34:06.772Z,92.48
2023-04-23T23:36:35.340Z,92.54
2023-04-23T23:39:04.544Z,92.31
2023-04-23T23:41:33.147Z,92.20
2023-04-23T23:44:01.579Z,92.34
2023-04-23T23:46:31.714Z,92.53
2023-04-23T23:49:00.296Z,92.28
2023-04-23T23:51:30.927Z,92.45
2023-04-23T23:53:59.548Z,92.60
2023-04-23T23:56:28.418Z,92.48
2023-04-23T23:58:56.980Z,92.51
